createdAt,value
2023-05-23T00:00:47.764Z,12.38
2023-05-23T00:01:58.826Z,12.37
2023-05-23T00:03:01.702Z,12.36
2023-05-23T00:04:04.722Z,12.36
2023-05-23T00:05:07.657Z,12.35
2023-05-23T00:06:10.360Z,12.34
2023-05-23T00:07:13.081Z,12.34
2023-05-23T00:08:16.365Z,12.34
2023-05-23T00:09:19.389Z,12.32
2023-05-23T00:10:22.394Z,12.32
2023-05-23T00:11:27.231Z,12.31
2023-05-23T00:12:29.983Z,12.30
2023-05-23T00:13:35.903Z,12.29
2023-05-23T00:14:40.332Z,12.29
2023-05-23T00:15:43.625Z,12.29
2023-05-23T00:16:46.852Z,12.28
2023-05-23T00:17:49.627Z,12.26
2023-05-23T00:18:53.691Z,12.27
2023-05-23T00:19:56.492Z,12.25
2023-05-23T00:21:00.093Z,12.25
2023-05-23T00:22:03.357Z,12.24
2023-05-23T00:23:06.332Z,12.24
2023-05-23T00:24:10.544Z,12.23
2023-05-23T00:25:13.692Z,12.22
2023-05-23T00:26:16.447Z,12.21
2023-05-23T00:27:20.675Z,12.20
2023-05-23T00:28:23.352Z,12.19
2023-05-23T00:29:26.068Z,12.19
2023-05-23T00:30:30.371Z,12.18
2023-05-23T00:31:33.280Z,12.17
2023-05-23T00:32:36.268Z,12.16
2023-05-23T00:33:39.066Z,12.16
2023-05-23T00:34:41.794Z,12.15
2023-05-23T00:35:44.601Z,12.15
2023-05-23T00:36:48.151Z,12.14
2023-05-23T00:37:52.109Z,12.12
2023-05-23T00:38:55.805Z,12.12
2023-05-23T00:39:58.587Z,12.12
2023-05-23T00:41:02.088Z,12.11
2023-05-23T00:42:05.557Z,12.10
2023-05-23T00:43:11.077Z,12.09
2023-05-23T00:44:13.921Z,12.08
2023-05-23T00:45:17.288Z,12.07
2023-05-23T00:46:20.451Z,12.07
2023-05-23T00:47:23.545Z,12.06
2023-05-23T00:48:26.791Z,12.04
2023-05-23T00:49:30.250Z,12.03
2023-05-23T00:50:33.682Z,12.02
2023-05-23T00:51:36.571Z,12.00
2023-05-23T00:52:39.512Z,11.99
2023-05-23T00:53:43.341Z,11.98
2023-05-23T00:54:46.123Z,11.97
2023-05-23T00:55:48.938Z,11.96
2023-05-23T00:56:51.806Z,11.95
2023-05-23T00:57:57.254Z,11.94
2023-05-23T00:59:01.064Z,11.93
2023-05-23T01:00:04.478Z,11.93
2023-05-23T01:01:08.010Z,11.92
2023-05-23T01:02:12.306Z,11.92
2023-05-23T01:03:18.572Z,11.91
2023-05-23T01:04:26.596Z,11.90
2023-05-23T01:05:30.519Z,11.90
2023-05-23T01:06:33.795Z,11.90
2023-05-23T01:07:36.603Z,11.89
2023-05-23T01:08:39.538Z,11.88
2023-05-23T01:09:42.266Z,11.87
2023-05-23T01:10:44.987Z,11.86
2023-05-23T01:11:57.066Z,11.85
2023-05-23T01:13:05.898Z,11.83
2023-05-23T01:14:14.910Z,11.81
2023-05-23T01:15:19.251Z,11.80
2023-05-23T01:16:30.130Z,11.78
2023-05-23T01:17:45.228Z,11.77
2023-05-23T01:18:54.969Z,11.76
2023-05-23T01:20:19.082Z,11.73
2023-05-23T01:21:24.014Z,11.71
2023-05-23T01:22:39.527Z,11.70
2023-05-23T01:24:01.021Z,11.68
2023-05-23T01:25:11.079Z,11.66
2023-05-23T01:26:19.807Z,11.66
2023-05-23T01:27:24.300Z,11.65
2023-05-23T01:28:32.486Z,11.64
2023-05-23T01:29:38.808Z,11.63
2023-05-23T01:32:11.756Z,11.60
2023-05-23T01:33:17.948Z,11.60
2023-05-23T01:34:21.195Z,11.60
2023-05-23T01:35:28.028Z,11.60
2023-05-23T01:36:35.182Z,11.59
2023-05-23T01:37:38.159Z,11.59
2023-05-23T01:38:41.016Z,11.58
2023-05-23T01:39:43.913Z,11.58
2023-05-23T01:40:46.675Z,11.58
2023-05-23T01:41:50.531Z,11.58
2023-05-23T01:42:55.233Z,11.57
2023-05-23T01:43:58.129Z,11.56
2023-05-23T01:45:02.361Z,11.55
2023-05-23T01:46:07.848Z,11.53
2023-05-23T01:47:11.351Z,11.53
2023-05-23T01:48:16.142Z,11.53
2023-05-23T01:49:20.551Z,11.52
2023-05-23T01:50:24.568Z,11.52
2023-05-23T01:51:28.516Z,11.51
2023-05-23T01:52:32.435Z,11.51
2023-05-23T01:53:37.231Z,11.51
2023-05-23T01:54:42.648Z,11.51
2023-05-23T01:55:46.713Z,11.51
2023-05-23T01:56:50.921Z,11.50
2023-05-23T01:57:55.779Z,11.50
2023-05-23T01:58:58.593Z,11.49
2023-05-23T02:00:01.455Z,11.47
2023-05-23T02:02:49.823Z,11.44
2023-05-23T02:05:13.175Z,11.38
2023-05-23T02:06:15.937Z,11.38
2023-05-23T02:07:23.109Z,11.38
2023-05-23T02:08:26.092Z,11.37
2023-05-23T02:09:28.898Z,11.36
2023-05-23T02:10:32.169Z,11.37
2023-05-23T02:11:36.648Z,11.35
2023-05-23T02:12:39.429Z,11.34
2023-05-23T02:13:42.225Z,11.33
2023-05-23T02:14:45.049Z,11.32
2023-05-23T02:15:47.895Z,11.32
2023-05-23T02:16:53.038Z,11.31
2023-05-23T02:17:56.601Z,11.31
2023-05-23T02:18:59.546Z,11.30
2023-05-23T02:20:02.358Z,11.30
2023-05-23T02:21:05.822Z,11.31
2023-05-23T02:22:08.575Z,11.32
2023-05-23T02:23:11.301Z,11.32
2023-05-23T02:24:14.204Z,11.31
2023-05-23T02:25:16.987Z,11.30
2023-05-23T02:26:19.704Z,11.30
2023-05-23T02:27:22.568Z,11.30
2023-05-23T02:28:25.315Z,11.30
2023-05-23T02:29:28.090Z,11.29
2023-05-23T02:30:30.964Z,11.28
2023-05-23T02:31:34.452Z,11.27
2023-05-23T02:32:37.835Z,11.26
2023-05-23T02:33:41.010Z,11.25
2023-05-23T02:34:46.683Z,11.23
2023-05-23T02:35:51.529Z,11.22
2023-05-23T02:36:54.540Z,11.22
2023-05-23T02:37:57.527Z,11.19
2023-05-23T02:39:00.446Z,11.17
2023-05-23T02:40:03.466Z,11.16
2023-05-23T02:41:06.292Z,11.15
2023-05-23T02:42:09.681Z,11.13
2023-05-23T02:43:13.107Z,11.11
2023-05-23T02:44:15.910Z,11.09
2023-05-23T02:45:18.665Z,11.07
2023-05-23T02:46:23.003Z,11.05
2023-05-23T02:47:26.030Z,11.03
2023-05-23T02:48:28.822Z,11.02
2023-05-23T02:49:31.759Z,11.02
2023-05-23T02:50:34.462Z,11.02
2023-05-23T02:51:37.246Z,11.02
2023-05-23T02:52:40.053Z,11.02
2023-05-23T02:53:42.738Z,11.03
2023-05-23T02:54:45.712Z,11.04
2023-05-23T02:55:48.742Z,11.05
2023-05-23T02:56:52.441Z,11.04
2023-05-23T02:57:55.199Z,11.04
2023-05-23T02:58:57.962Z,11.05
2023-05-23T03:00:00.695Z,11.06
2023-05-23T03:01:04.940Z,11.07
2023-05-23T03:02:09.224Z,11.09
2023-05-23T03:03:12.742Z,11.11
2023-05-23T03:04:16.282Z,11.10
2023-05-23T03:05:19.040Z,11.10
2023-05-23T03:06:22.562Z,11.11
2023-05-23T03:07:28.575Z,11.10
2023-05-23T03:08:32.078Z,11.11
2023-05-23T03:09:35.412Z,11.13
2023-05-23T03:10:38.147Z,11.12
2023-05-23T03:11:40.992Z,11.12
2023-05-23T03:12:43.931Z,11.14
2023-05-23T03:13:46.709Z,11.16
2023-05-23T03:14:49.446Z,11.18
2023-05-23T03:15:52.215Z,11.20
2023-05-23T03:16:55.148Z,11.21
2023-05-23T03:17:57.936Z,11.22
2023-05-23T03:19:00.867Z,11.23
2023-05-23T03:20:04.936Z,11.26
2023-05-23T03:21:08.187Z,11.28
2023-05-23T03:22:10.869Z,11.30
2023-05-23T03:23:13.642Z,11.33
2023-05-23T03:24:16.576Z,11.36
2023-05-23T03:25:19.741Z,11.37
2023-05-23T03:26:24.016Z,11.39
2023-05-23T03:27:26.944Z,11.41
2023-05-23T03:28:32.679Z,11.43
2023-05-23T03:29:35.631Z,11.44
2023-05-23T03:30:38.666Z,11.45
2023-05-23T03:31:41.384Z,11.47
2023-05-23T03:32:44.245Z,11.48
2023-05-23T03:33:46.994Z,11.49
2023-05-23T03:34:49.747Z,11.51
2023-05-23T03:35:53.173Z,11.53
2023-05-23T03:36:56.064Z,11.55
2023-05-23T03:37:58.858Z,11.58
2023-05-23T03:39:01.702Z,11.62
2023-05-23T03:40:04.990Z,11.66
2023-05-23T03:41:07.756Z,11.71
2023-05-23T03:42:11.041Z,11.76
2023-05-23T03:43:13.822Z,11.82
2023-05-23T03:44:17.540Z,11.85
2023-05-23T03:45:20.558Z,11.89
2023-05-23T03:46:23.537Z,11.93
2023-05-23T03:47:26.939Z,11.98
2023-05-23T03:48:30.989Z,12.01
2023-05-23T03:49:33.726Z,12.06
2023-05-23T03:50:36.974Z,12.11
2023-05-23T03:51:39.798Z,12.16
2023-05-23T03:52:42.675Z,12.20
2023-05-23T03:53:46.388Z,12.25
2023-05-23T03:54:50.974Z,12.31
2023-05-23T03:55:54.116Z,12.34
2023-05-23T03:56:57.470Z,12.39
2023-05-23T03:58:00.403Z,12.43
2023-05-23T03:59:03.197Z,12.48
2023-05-23T04:00:12.224Z,12.53
2023-05-23T04:01:19.616Z,12.59
2023-05-23T04:02:23.468Z,12.65
2023-05-23T04:03:28.483Z,12.69
2023-05-23T04:04:32.199Z,12.75
2023-05-23T04:05:35.351Z,12.79
2023-05-23T04:06:38.385Z,12.84
2023-05-23T04:07:42.019Z,12.89
2023-05-23T04:08:45.326Z,12.95
2023-05-23T04:09:48.180Z,13.00
2023-05-23T04:10:51.078Z,13.05
2023-05-23T04:11:54.221Z,13.10
2023-05-23T04:12:57.504Z,13.16
2023-05-23T04:14:02.135Z,13.21
2023-05-23T04:15:05.325Z,13.26
2023-05-23T04:16:09.912Z,13.29
2023-05-23T04:17:12.820Z,13.33
2023-05-23T04:18:17.535Z,13.39
2023-05-23T04:19:20.781Z,13.45
2023-05-23T04:20:23.676Z,13.50
2023-05-23T04:21:26.652Z,13.57
2023-05-23T04:22:40.302Z,13.63
2023-05-23T04:23:43.681Z,13.68
2023-05-23T04:24:46.910Z,13.73
2023-05-23T04:25:51.472Z,13.77
2023-05-23T04:27:00.849Z,13.82
2023-05-23T04:28:03.672Z,13.86
2023-05-23T04:29:06.616Z,13.90
2023-05-23T04:30:10.409Z,13.95
2023-05-23T04:31:17.190Z,14.00
2023-05-23T04:32:23.094Z,14.06
2023-05-23T04:33:26.491Z,14.12
2023-05-23T04:34:30.639Z,14.17
2023-05-23T04:35:34.401Z,14.22
2023-05-23T04:36:38.333Z,14.28
2023-05-23T04:37:42.570Z,14.35
2023-05-23T04:38:45.760Z,14.42
2023-05-23T04:39:49.402Z,14.48
2023-05-23T04:41:07.798Z,14.55
2023-05-23T04:42:25.085Z,14.60
2023-05-23T04:43:46.177Z,14.68
2023-05-23T04:44:58.415Z,14.76
2023-05-23T04:46:30.172Z,14.85
2023-05-23T04:47:54.904Z,14.93
2023-05-23T04:49:18.334Z,15.01
2023-05-23T04:50:22.942Z,15.07
2023-05-23T04:51:26.260Z,15.15
2023-05-23T04:52:33.982Z,15.21
2023-05-23T04:53:37.719Z,15.28
2023-05-23T04:54:44.977Z,15.34
2023-05-23T04:55:48.423Z,15.42
2023-05-23T04:56:53.620Z,15.48
2023-05-23T04:57:57.293Z,15.55
2023-05-23T04:59:00.597Z,15.63
2023-05-23T05:00:14.878Z,15.71
2023-05-23T05:01:17.827Z,15.77
2023-05-23T05:02:20.638Z,15.83
2023-05-23T05:03:25.119Z,15.87
2023-05-23T05:04:27.993Z,15.91
2023-05-23T05:05:31.144Z,15.97
2023-05-23T05:06:33.940Z,16.03
2023-05-23T05:07:37.113Z,16.09
2023-05-23T05:08:41.089Z,16.14
2023-05-23T05:09:44.367Z,16.17
2023-05-23T05:10:47.781Z,16.21
2023-05-23T05:11:51.847Z,16.25
2023-05-23T05:12:55.812Z,16.29
2023-05-23T05:13:58.885Z,16.33
2023-05-23T05:15:02.848Z,16.38
2023-05-23T05:16:05.856Z,16.43
2023-05-23T05:17:08.752Z,16.48
2023-05-23T05:18:36.791Z,16.53
2023-05-23T05:19:39.654Z,16.57
2023-05-23T05:20:42.755Z,16.61
2023-05-23T05:21:45.580Z,16.67
2023-05-23T05:22:55.545Z,16.70
2023-05-23T05:24:00.062Z,16.76
2023-05-23T05:25:03.855Z,16.80
2023-05-23T05:26:06.589Z,16.86
2023-05-23T05:27:11.754Z,16.90
2023-05-23T05:28:14.690Z,16.97
2023-05-23T05:29:20.617Z,17.04
2023-05-23T05:30:23.445Z,17.09
2023-05-23T05:31:30.376Z,17.15
2023-05-23T05:32:33.984Z,17.20
2023-05-23T05:33:38.045Z,17.24
2023-05-23T05:34:49.106Z,17.29
2023-05-23T05:35:53.060Z,17.32
2023-05-23T05:36:56.985Z,17.35
2023-05-23T05:38:02.919Z,17.39
2023-05-23T05:39:06.958Z,17.42
2023-05-23T05:40:10.133Z,17.45
2023-05-23T05:41:14.450Z,17.48
2023-05-23T05:42:22.746Z,17.51
2023-05-23T05:43:28.361Z,17.55
2023-05-23T05:44:31.366Z,17.60
2023-05-23T05:45:34.178Z,17.64
2023-05-23T05:46:36.968Z,17.68
2023-05-23T05:47:39.900Z,17.71
2023-05-23T05:48:42.920Z,17.73
2023-05-23T05:49:48.179Z,17.75
2023-05-23T05:50:50.963Z,17.76
2023-05-23T05:51:53.876Z,17.80
2023-05-23T05:52:59.125Z,17.83
2023-05-23T05:54:01.910Z,17.85
2023-05-23T05:55:06.703Z,17.87
2023-05-23T05:56:09.565Z,17.90
2023-05-23T05:57:13.957Z,17.94
2023-05-23T05:58:16.922Z,17.98
2023-05-23T05:59:31.061Z,18.03
2023-05-23T06:00:42.297Z,18.07
2023-05-23T06:01:45.519Z,18.11
2023-05-23T06:02:51.543Z,18.15
2023-05-23T06:04:15.254Z,18.19
2023-05-23T06:05:18.618Z,18.23
2023-05-23T06:06:22.552Z,18.27
2023-05-23T06:07:25.538Z,18.30
2023-05-23T06:08:28.316Z,18.32
2023-05-23T06:09:31.092Z,18.35
2023-05-23T06:10:34.029Z,18.38
2023-05-23T06:11:41.336Z,18.41
2023-05-23T06:12:45.727Z,18.47
2023-05-23T06:13:49.297Z,18.51
2023-05-23T06:14:52.065Z,18.53
2023-05-23T06:15:55.005Z,18.54
2023-05-23T06:16:58.043Z,18.54
2023-05-23T06:18:01.057Z,18.55
2023-05-23T06:19:05.794Z,18.55
2023-05-23T06:20:08.890Z,18.56
2023-05-23T06:21:12.561Z,18.57
2023-05-23T06:22:15.398Z,18.59
2023-05-23T06:23:18.350Z,18.62
2023-05-23T06:24:21.841Z,18.65
2023-05-23T06:25:24.515Z,18.69
2023-05-23T06:26:27.711Z,18.71
2023-05-23T06:27:30.453Z,18.74
2023-05-23T06:28:33.184Z,18.79
2023-05-23T06:29:36.950Z,18.83
2023-05-23T06:30:39.852Z,18.88
2023-05-23T06:31:44.368Z,18.90
2023-05-23T06:32:47.158Z,18.92
2023-05-23T06:33:51.183Z,18.96
2023-05-23T06:34:53.955Z,18.96
2023-05-23T06:35:56.650Z,18.95
2023-05-23T06:36:59.371Z,18.97
2023-05-23T06:38:02.094Z,19.01
2023-05-23T06:39:05.132Z,19.05
2023-05-23T06:40:09.698Z,19.11
2023-05-23T06:41:12.445Z,19.15
2023-05-23T06:42:15.687Z,19.20
2023-05-23T06:43:37.156Z,19.27
2023-05-23T06:44:50.703Z,19.32
2023-05-23T06:45:54.421Z,19.37
2023-05-23T06:46:58.933Z,19.41
2023-05-23T06:48:02.015Z,19.45
2023-05-23T06:49:14.245Z,19.48
2023-05-23T06:50:21.413Z,19.51
2023-05-23T06:51:24.700Z,19.55
2023-05-23T06:52:27.612Z,19.58
2023-05-23T06:53:30.842Z,19.63
2023-05-23T06:54:33.786Z,19.69
2023-05-23T06:55:36.605Z,19.75
2023-05-23T06:56:40.197Z,19.81
2023-05-23T06:57:43.220Z,19.88
2023-05-23T06:58:47.174Z,19.93
2023-05-23T06:59:50.407Z,20.01
2023-05-23T07:00:53.236Z,20.09
2023-05-23T07:01:59.870Z,20.17
2023-05-23T07:03:03.867Z,20.25
2023-05-23T07:04:07.116Z,20.31
2023-05-23T07:05:10.270Z,20.38
2023-05-23T07:06:22.079Z,20.45
2023-05-23T07:07:24.891Z,20.51
2023-05-23T07:08:28.092Z,20.59
2023-05-23T07:09:38.438Z,20.67
2023-05-23T07:10:47.935Z,20.76
2023-05-23T07:11:58.764Z,20.84
2023-05-23T07:13:01.938Z,20.92
2023-05-23T07:14:06.110Z,20.99
2023-05-23T07:15:12.325Z,21.05
2023-05-23T07:16:21.355Z,21.11
2023-05-23T07:17:33.681Z,21.17
2023-05-23T07:18:38.832Z,21.24
2023-05-23T07:19:41.939Z,21.31
2023-05-23T07:20:44.719Z,21.37
2023-05-23T07:21:50.842Z,21.44
2023-05-23T07:22:54.322Z,21.53
2023-05-23T07:23:57.089Z,21.60
2023-05-23T07:24:59.987Z,21.66
2023-05-23T07:26:05.918Z,21.73
2023-05-23T07:27:16.066Z,21.80
2023-05-23T07:28:20.025Z,21.86
2023-05-23T07:29:23.019Z,21.90
2023-05-23T07:30:27.534Z,21.96
2023-05-23T07:31:30.879Z,21.99
2023-05-23T07:32:34.922Z,22.02
2023-05-23T07:33:37.903Z,22.03
2023-05-23T07:34:41.227Z,22.05
2023-05-23T07:35:46.751Z,22.08
2023-05-23T07:36:50.413Z,22.12
2023-05-23T07:37:53.790Z,22.16
2023-05-23T07:38:56.838Z,22.20
2023-05-23T07:39:59.723Z,22.23
2023-05-23T07:41:10.723Z,22.27
2023-05-23T07:42:14.855Z,22.31
2023-05-23T07:43:17.940Z,22.34
2023-05-23T07:44:23.957Z,22.36
2023-05-23T07:45:28.030Z,22.37
2023-05-23T07:46:31.271Z,22.41
2023-05-23T07:47:34.143Z,22.45
2023-05-23T07:48:36.970Z,22.48
2023-05-23T07:49:39.936Z,22.52
2023-05-23T07:50:42.801Z,22.57
2023-05-23T07:51:46.080Z,22.61
2023-05-23T07:52:51.362Z,22.63
2023-05-23T07:53:57.485Z,22.65
2023-05-23T07:55:00.823Z,22.67
2023-05-23T07:56:04.209Z,22.71
2023-05-23T07:57:11.956Z,22.74
2023-05-23T07:58:14.821Z,22.77
2023-05-23T07:59:17.715Z,22.79
2023-05-23T08:00:21.953Z,22.83
2023-05-23T08:01:26.327Z,22.87
2023-05-23T08:02:39.849Z,22.93
2023-05-23T08:03:42.744Z,22.97
2023-05-23T08:04:50.165Z,23.01
2023-05-23T08:05:54.300Z,23.03
2023-05-23T08:08:05.518Z,23.09
2023-05-23T08:09:10.045Z,23.12
2023-05-23T08:10:17.486Z,23.15
2023-05-23T08:11:20.539Z,23.18
2023-05-23T08:12:26.320Z,23.22
2023-05-23T08:13:36.288Z,23.26
2023-05-23T08:14:57.923Z,23.30
2023-05-23T08:16:14.808Z,23.32
2023-05-23T08:17:17.933Z,23.34
2023-05-23T08:18:20.913Z,23.34
2023-05-23T08:19:24.137Z,23.37
2023-05-23T08:20:31.145Z,23.41
2023-05-23T08:21:36.404Z,23.44
2023-05-23T08:22:39.464Z,23.43
2023-05-23T08:23:42.302Z,23.42
2023-05-23T08:24:45.055Z,23.45
2023-05-23T08:25:47.779Z,23.49
2023-05-23T08:26:50.524Z,23.52
2023-05-23T08:27:53.573Z,23.53
2023-05-23T08:29:11.243Z,23.55
2023-05-23T08:30:14.352Z,23.54
2023-05-23T08:31:17.334Z,23.54
2023-05-23T08:32:20.527Z,23.54
2023-05-23T08:33:23.296Z,23.55
2023-05-23T08:34:26.322Z,23.57
2023-05-23T08:35:33.806Z,23.59
2023-05-23T08:36:37.007Z,23.62
2023-05-23T08:37:42.029Z,23.66
2023-05-23T08:38:47.090Z,23.71
2023-05-23T08:39:56.315Z,23.76
2023-05-23T08:41:16.512Z,23.81
2023-05-23T08:42:19.563Z,23.83
2023-05-23T08:43:22.634Z,23.85
2023-05-23T08:44:25.673Z,23.85
2023-05-23T08:45:34.836Z,23.86
2023-05-23T08:46:41.325Z,23.84
2023-05-23T08:47:45.282Z,23.82
2023-05-23T08:48:51.546Z,23.81
2023-05-23T08:49:55.666Z,23.77
2023-05-23T08:50:59.632Z,23.75
2023-05-23T08:52:06.119Z,23.72
2023-05-23T08:53:12.352Z,23.69
2023-05-23T08:54:15.381Z,23.66
2023-05-23T08:55:18.858Z,23.65
2023-05-23T08:56:24.504Z,23.67
2023-05-23T08:57:27.770Z,23.69
2023-05-23T08:58:35.503Z,23.69
2023-05-23T08:59:38.943Z,23.68
2023-05-23T09:00:42.889Z,23.69
2023-05-23T09:01:47.584Z,23.69
2023-05-23T09:02:51.799Z,23.69
2023-05-23T09:04:14.801Z,23.67
2023-05-23T09:05:26.510Z,23.65
2023-05-23T09:06:29.344Z,23.65
2023-05-23T09:07:32.190Z,23.63
2023-05-23T09:08:35.559Z,23.60
2023-05-23T09:09:38.993Z,23.58
2023-05-23T09:10:43.127Z,23.57
2023-05-23T09:11:47.139Z,23.57
2023-05-23T09:12:50.202Z,23.56
2023-05-23T09:13:53.810Z,23.59
2023-05-23T09:14:57.928Z,23.62
2023-05-23T09:16:04.124Z,23.67
2023-05-23T09:17:11.206Z,23.73
2023-05-23T09:18:14.614Z,23.79
2023-05-23T09:19:18.499Z,23.83
2023-05-23T09:20:28.731Z,23.88
2023-05-23T09:21:34.497Z,23.93
2023-05-23T09:22:46.028Z,23.95
2023-05-23T09:23:50.313Z,23.96
2023-05-23T09:24:54.249Z,23.97
2023-05-23T09:25:57.013Z,23.95
2023-05-23T09:26:59.749Z,23.93
2023-05-23T09:28:04.657Z,23.89
2023-05-23T09:29:08.646Z,23.90
2023-05-23T09:30:11.985Z,23.90
2023-05-23T09:31:16.360Z,23.90
2023-05-23T09:33:28.809Z,23.91
2023-05-23T09:34:31.596Z,23.88
2023-05-23T09:35:34.379Z,23.89
2023-05-23T09:36:41.165Z,23.90
2023-05-23T09:37:49.146Z,23.96
2023-05-23T09:38:54.738Z,24.04
2023-05-23T09:39:59.163Z,24.10
2023-05-23T09:41:01.998Z,24.17
2023-05-23T09:42:04.790Z,24.22
2023-05-23T09:43:07.815Z,24.27
2023-05-23T09:44:10.882Z,24.32
2023-05-23T09:45:14.427Z,24.37
2023-05-23T09:46:17.510Z,24.43
2023-05-23T09:47:20.625Z,24.48
2023-05-23T09:48:33.548Z,24.53
2023-05-23T09:49:38.952Z,24.58
2023-05-23T09:50:42.053Z,24.65
2023-05-23T09:51:57.309Z,24.71
2023-05-23T09:53:01.370Z,24.76
2023-05-23T09:54:04.173Z,24.81
2023-05-23T09:55:07.152Z,24.83
2023-05-23T09:56:11.683Z,24.84
2023-05-23T09:57:15.185Z,24.87
2023-05-23T09:58:19.779Z,24.88
2023-05-23T09:59:24.351Z,24.89
2023-05-23T10:00:28.717Z,24.91
2023-05-23T10:01:32.240Z,24.92
2023-05-23T10:02:54.154Z,24.92
2023-05-23T10:04:00.248Z,24.91
2023-05-23T10:05:05.192Z,24.94
2023-05-23T10:06:08.747Z,25.01
2023-05-23T10:07:15.873Z,25.07
2023-05-23T10:08:27.109Z,25.12
2023-05-23T10:09:33.191Z,25.14
2023-05-23T10:10:50.991Z,25.14
2023-05-23T10:12:11.833Z,25.19
2023-05-23T10:13:14.669Z,25.28
2023-05-23T10:14:17.944Z,25.32
2023-05-23T10:15:21.688Z,25.35
2023-05-23T10:16:32.039Z,25.38
2023-05-23T10:17:47.259Z,25.38
2023-05-23T10:18:55.711Z,25.35
2023-05-23T10:20:00.929Z,25.34
2023-05-23T10:21:07.134Z,25.38
2023-05-23T10:22:11.363Z,25.44
2023-05-23T10:23:14.302Z,25.49
2023-05-23T10:24:17.500Z,25.51
2023-05-23T10:25:20.376Z,25.51
2023-05-23T10:26:23.513Z,25.49
2023-05-23T10:27:27.708Z,25.46
2023-05-23T10:28:30.741Z,25.47
2023-05-23T10:29:36.604Z,25.48
2023-05-23T10:30:40.264Z,25.48
2023-05-23T10:31:44.102Z,25.52
2023-05-23T10:32:47.425Z,25.54
2023-05-23T10:33:58.395Z,25.54
2023-05-23T10:35:20.089Z,25.50
2023-05-23T10:36:28.329Z,25.47
2023-05-23T10:37:45.228Z,25.43
2023-05-23T10:38:51.645Z,25.39
2023-05-23T10:40:17.427Z,25.38
2023-05-23T10:41:22.707Z,25.39
2023-05-23T10:42:35.420Z,25.39
2023-05-23T10:43:41.454Z,25.41
2023-05-23T10:44:44.234Z,25.46
2023-05-23T10:45:50.707Z,25.53
2023-05-23T10:46:54.824Z,25.61
2023-05-23T10:48:00.222Z,25.70
2023-05-23T10:49:03.710Z,25.80
2023-05-23T10:50:07.239Z,25.89
2023-05-23T10:51:10.957Z,25.98
2023-05-23T10:52:16.082Z,26.06
2023-05-23T10:53:18.902Z,26.11
2023-05-23T10:54:21.692Z,26.14
2023-05-23T10:55:24.459Z,26.17
2023-05-23T10:56:31.661Z,26.22
2023-05-23T10:57:34.515Z,26.23
2023-05-23T10:58:39.263Z,26.25
2023-05-23T10:59:42.522Z,26.32
2023-05-23T11:00:55.263Z,26.37
2023-05-23T11:01:58.378Z,26.38
2023-05-23T11:03:05.037Z,26.36
2023-05-23T11:04:08.018Z,26.30
2023-05-23T11:05:23.164Z,26.23
2023-05-23T11:06:30.223Z,26.16
2023-05-23T11:07:33.260Z,26.12
2023-05-23T11:08:46.816Z,26.15
2023-05-23T11:10:11.163Z,26.16
2023-05-23T11:11:13.932Z,26.15
2023-05-23T11:12:36.260Z,26.17
2023-05-23T11:13:55.352Z,26.27
2023-05-23T11:14:58.206Z,26.36
2023-05-23T11:16:00.965Z,26.47
2023-05-23T11:17:17.012Z,26.58
2023-05-23T11:18:21.210Z,26.70
2023-05-23T11:19:26.384Z,26.80
2023-05-23T11:20:30.716Z,26.91
2023-05-23T11:21:33.981Z,27.04
2023-05-23T11:22:36.934Z,27.15
2023-05-23T11:23:41.912Z,27.22
2023-05-23T11:24:47.711Z,27.36
2023-05-23T11:25:52.009Z,27.48
2023-05-23T11:27:00.332Z,27.60
2023-05-23T11:28:07.245Z,27.71
2023-05-23T11:29:10.025Z,27.75
2023-05-23T11:30:14.548Z,27.80
2023-05-23T11:31:18.018Z,27.81
2023-05-23T11:32:21.011Z,27.82
2023-05-23T11:33:23.864Z,27.80
2023-05-23T11:34:26.726Z,27.90
2023-05-23T11:35:30.867Z,28.05
2023-05-23T11:36:36.414Z,28.25
2023-05-23T11:37:40.050Z,28.45
2023-05-23T11:38:42.980Z,28.61
2023-05-23T11:39:45.670Z,28.79
2023-05-23T11:40:48.580Z,28.93
2023-05-23T11:42:01.098Z,29.04
2023-05-23T11:43:05.308Z,29.21
2023-05-23T11:44:11.954Z,29.35
2023-05-23T11:45:14.701Z,29.47
2023-05-23T11:46:18.540Z,29.54
2023-05-23T11:47:21.559Z,29.63
2023-05-23T11:48:24.445Z,29.70
2023-05-23T11:49:35.582Z,29.82
2023-05-23T11:50:46.007Z,29.90
2023-05-23T11:51:48.792Z,29.98
2023-05-23T11:52:52.138Z,30.03
2023-05-23T11:53:54.973Z,30.06
2023-05-23T11:55:03.655Z,29.98
2023-05-23T11:56:07.211Z,29.83
2023-05-23T11:57:10.798Z,29.70
2023-05-23T11:58:13.598Z,29.57
2023-05-23T11:59:16.675Z,29.36
2023-05-23T12:00:19.796Z,29.10
2023-05-23T12:01:28.882Z,28.87
2023-05-23T12:02:32.719Z,28.74
2023-05-23T12:03:44.869Z,28.62
2023-05-23T12:04:49.499Z,28.42
2023-05-23T12:05:52.813Z,28.17
2023-05-23T12:06:56.321Z,27.90
2023-05-23T12:07:59.822Z,27.66
2023-05-23T12:09:02.898Z,27.41
2023-05-23T12:10:06.071Z,27.23
2023-05-23T12:11:08.866Z,27.04
2023-05-23T12:12:12.344Z,26.88
2023-05-23T12:13:15.383Z,26.73
2023-05-23T12:14:18.251Z,26.59
2023-05-23T12:15:25.378Z,26.52
2023-05-23T12:16:29.752Z,26.64
2023-05-23T12:17:33.312Z,26.90
2023-05-23T12:18:37.676Z,27.08
2023-05-23T12:19:40.769Z,27.37
2023-05-23T12:20:43.812Z,27.65
2023-05-23T12:21:47.626Z,27.80
2023-05-23T12:22:50.333Z,27.84
2023-05-23T12:23:53.172Z,27.82
2023-05-23T12:24:56.556Z,27.79
2023-05-23T12:25:59.326Z,27.75
2023-05-23T12:27:03.056Z,27.71
2023-05-23T12:28:06.079Z,27.67
2023-05-23T12:29:08.837Z,27.61
2023-05-23T12:30:14.307Z,27.54
2023-05-23T12:31:26.346Z,27.45
2023-05-23T12:32:29.162Z,27.53
2023-05-23T12:33:31.934Z,27.79
2023-05-23T12:34:34.737Z,28.11
2023-05-23T12:35:37.911Z,28.47
2023-05-23T12:36:49.204Z,28.85
2023-05-23T12:37:56.737Z,29.28
2023-05-23T12:39:03.779Z,29.66
2023-05-23T12:40:24.731Z,30.00
2023-05-23T12:41:27.417Z,30.42
2023-05-23T12:42:32.768Z,30.74
2023-05-23T12:43:38.249Z,31.10
2023-05-23T12:44:41.807Z,31.40
2023-05-23T12:45:44.650Z,31.69
2023-05-23T12:46:48.311Z,31.91
2023-05-23T12:47:53.963Z,32.11
2023-05-23T12:48:57.295Z,32.24
2023-05-23T12:50:00.506Z,32.23
2023-05-23T12:51:03.489Z,32.09
2023-05-23T12:52:07.509Z,32.05
2023-05-23T12:53:10.372Z,32.14
2023-05-23T12:54:13.176Z,32.31
2023-05-23T12:55:16.341Z,32.48
2023-05-23T12:56:20.984Z,32.65
2023-05-23T12:57:23.833Z,32.85
2023-05-23T12:58:27.587Z,32.95
2023-05-23T12:59:31.225Z,33.09
2023-05-23T13:00:34.225Z,33.32
2023-05-23T13:01:37.146Z,33.66
2023-05-23T13:02:40.144Z,34.00
2023-05-23T13:03:43.140Z,34.29
2023-05-23T13:04:45.980Z,34.55
2023-05-23T13:05:48.716Z,34.66
2023-05-23T13:06:52.953Z,34.76
2023-05-23T13:07:55.746Z,34.86
2023-05-23T13:08:58.738Z,34.85
2023-05-23T13:10:02.482Z,34.74
2023-05-23T13:11:05.670Z,34.55
2023-05-23T13:12:09.291Z,34.36
2023-05-23T13:13:12.246Z,34.10
2023-05-23T13:14:15.004Z,33.84
2023-05-23T13:15:17.833Z,33.47
2023-05-23T13:16:20.560Z,33.07
2023-05-23T13:17:23.506Z,32.74
2023-05-23T13:18:26.370Z,32.43
2023-05-23T13:19:29.270Z,32.12
2023-05-23T13:20:32.392Z,31.81
2023-05-23T13:21:35.663Z,31.42
2023-05-23T13:22:38.475Z,31.08
2023-05-23T13:23:41.246Z,30.82
2023-05-23T13:24:44.235Z,30.63
2023-05-23T13:25:47.017Z,30.49
2023-05-23T13:26:49.952Z,30.46
2023-05-23T13:27:53.208Z,30.44
2023-05-23T13:28:56.002Z,30.33
2023-05-23T13:29:58.851Z,30.21
2023-05-23T13:31:03.653Z,30.10
2023-05-23T13:32:06.600Z,29.93
2023-05-23T13:33:09.457Z,29.82
2023-05-23T13:34:12.304Z,29.79
2023-05-23T13:35:15.634Z,29.73
2023-05-23T13:36:18.516Z,29.77
2023-05-23T13:37:21.332Z,29.87
2023-05-23T13:38:26.150Z,30.04
2023-05-23T13:39:29.726Z,30.26
2023-05-23T13:40:32.916Z,30.46
2023-05-23T13:41:35.807Z,30.56
2023-05-23T13:42:38.664Z,30.69
2023-05-23T13:43:41.575Z,30.89
2023-05-23T13:44:44.337Z,31.12
2023-05-23T13:45:47.507Z,31.39
2023-05-23T13:46:50.432Z,31.54
2023-05-23T13:47:53.328Z,31.66
2023-05-23T13:48:56.166Z,31.76
2023-05-23T13:49:59.216Z,31.93
2023-05-23T13:51:02.123Z,32.16
2023-05-23T13:52:05.022Z,32.45
2023-05-23T13:53:14.472Z,32.86
2023-05-23T13:54:17.426Z,33.13
2023-05-23T13:55:20.332Z,33.31
2023-05-23T13:56:24.525Z,33.45
2023-05-23T13:57:27.886Z,33.48
2023-05-23T13:58:32.673Z,33.44
2023-05-23T13:59:35.754Z,33.27
2023-05-23T14:00:39.077Z,33.20
2023-05-23T14:01:42.074Z,33.16
2023-05-23T14:02:44.898Z,32.90